createdAt,value
2019-02-01T00:01:07.736Z,0.80
2019-02-01T00:04:10.667Z,0.70
2019-02-01T00:07:13.587Z,0.80
2019-02-01T00:10:16.980Z,0.80
2019-02-01T00:13:20.864Z,0.70
2019-02-01T00:16:26.210Z,0.80
2019-02-01T00:19:29.715Z,0.80
2019-02-01T00:22:32.653Z,0.90
2019-02-01T00:25:36.149Z,0.90
2019-02-01T00:28:39.516Z,0.90
2019-02-01T00:31:42.823Z,0.90
2019-02-01T00:34:47.416Z,0.90
2019-02-01T00:37:50.728Z,0.90
2019-02-01T00:40:53.659Z,0.90
2019-02-01T00:43:57.163Z,0.90
2019-02-01T00:47:00.399Z,0.90
2019-02-01T00:50:04.860Z,0.90
2019-02-01T00:53:08.114Z,0.90
2019-02-01T00:56:12.196Z,0.90
2019-02-01T00:59:15.420Z,0.90
2019-02-01T01:02:18.751Z,1.00
2019-02-01T01:05:21.957Z,0.90
2019-02-01T01:08:25.371Z,1.00
2019-02-01T01:11:28.308Z,1.00
2019-02-01T01:14:31.576Z,1.00
2019-02-01T01:17:34.811Z,1.00
2019-02-01T01:20:37.923Z,1.00
2019-02-01T01:23:40.862Z,1.00
2019-02-01T01:26:43.763Z,1.00
2019-02-01T01:29:46.691Z,1.10
2019-02-01T01:32:50.434Z,1.10
2019-02-01T01:35:53.766Z,1.00
2019-02-01T01:38:58.915Z,1.00
2019-02-01T01:42:02.129Z,1.00
2019-02-01T01:45:13.131Z,1.10
2019-02-01T01:48:16.447Z,1.10
2019-02-01T01:51:19.372Z,1.10
2019-02-01T01:54:22.997Z,1.10
2019-02-01T01:57:25.914Z,1.10
2019-02-01T02:00:31.729Z,1.20
2019-02-01T02:03:34.640Z,1.10
2019-02-01T02:06:37.590Z,1.20
2019-02-01T02:09:40.848Z,1.20
2019-02-01T02:12:44.059Z,1.20
2019-02-01T02:15:49.039Z,1.30
2019-02-01T02:18:52.280Z,1.20
2019-02-01T02:21:55.834Z,1.20
2019-02-01T02:24:59.069Z,1.20
2019-02-01T02:28:02.323Z,1.20
2019-02-01T02:31:06.088Z,1.20
2019-02-01T02:34:11.695Z,1.30
2019-02-01T02:37:14.935Z,1.30
2019-02-01T02:40:20.360Z,1.30
2019-02-01T02:43:23.581Z,1.30
2019-02-01T02:46:26.850Z,1.30
2019-02-01T02:49:30.456Z,1.30
2019-02-01T02:52:33.469Z,1.30
2019-02-01T02:55:37.173Z,1.30
2019-02-01T02:58:40.812Z,1.30
2019-02-01T03:01:44.285Z,1.30
2019-02-01T03:04:48.267Z,1.30
2019-02-01T03:07:51.591Z,1.30
2019-02-01T03:10:54.979Z,1.30
2019-02-01T03:13:58.255Z,1.30
2019-02-01T03:17:01.176Z,1.30
2019-02-01T03:20:05.690Z,1.30
2019-02-01T03:23:08.623Z,1.30
2019-02-01T03:26:12.620Z,1.30
2019-02-01T03:29:16.100Z,1.40
2019-02-01T03:32:19.359Z,1.40
2019-02-01T03:35:22.936Z,1.30
2019-02-01T03:38:25.925Z,1.40
2019-02-01T03:41:29.277Z,1.30
2019-02-01T03:44:32.874Z,1.40
2019-02-01T03:47:36.458Z,1.40
2019-02-01T03:50:39.781Z,1.40
2019-02-01T03:53:43.621Z,1.40
2019-02-01T03:56:46.854Z,1.40
2019-02-01T03:59:50.144Z,1.40
2019-02-01T04:02:53.288Z,1.40
2019-02-01T04:05:57.779Z,1.50
2019-02-01T04:09:01.071Z,1.50
2019-02-01T04:12:05.695Z,1.50
2019-02-01T04:15:11.522Z,1.50
2019-02-01T04:18:14.596Z,1.50
2019-02-01T04:21:17.857Z,1.50
2019-02-01T04:24:20.759Z,1.60
2019-02-01T04:27:24.320Z,1.60
2019-02-01T04:30:27.356Z,1.80
2019-02-01T04:33:30.979Z,1.80
2019-02-01T04:36:36.505Z,1.80
2019-02-01T04:39:39.486Z,1.80
2019-02-01T04:42:43.079Z,1.70
2019-02-01T04:45:46.659Z,1.70
2019-02-01T04:48:49.608Z,1.70
2019-02-01T04:51:53.095Z,1.70
2019-02-01T04:54:56.007Z,1.70
2019-02-01T04:57:59.967Z,1.70
2019-02-01T05:01:03.203Z,1.80
2019-02-01T05:04:06.143Z,1.80
2019-02-01T05:07:09.143Z,1.80
2019-02-01T05:10:14.642Z,1.80
2019-02-01T05:13:17.673Z,1.80
2019-02-01T05:16:20.924Z,1.80
2019-02-01T05:19:23.867Z,1.80
2019-02-01T05:22:27.261Z,1.80
2019-02-01T05:25:30.188Z,1.80
2019-02-01T05:28:33.166Z,1.80
2019-02-01T05:31:36.711Z,1.80
2019-02-01T05:34:40.003Z,1.80
2019-02-01T05:37:43.925Z,1.80
2019-02-01T05:40:46.888Z,1.80
2019-02-01T05:43:50.505Z,1.80
2019-02-01T05:46:53.419Z,1.80
2019-02-01T05:49:56.634Z,1.80
2019-02-01T05:53:00.467Z,1.80
2019-02-01T05:56:03.725Z,1.80
2019-02-01T05:59:07.142Z,1.90
2019-02-01T06:02:10.080Z,1.80
2019-02-01T06:05:14.121Z,1.90
2019-02-01T06:08:17.078Z,1.90
2019-02-01T06:11:20.369Z,1.90
2019-02-01T06:14:23.739Z,1.90
2019-02-01T06:17:26.988Z,2.00
2019-02-01T06:20:40.002Z,1.90
2019-02-01T06:23:36.725Z,2.00
2019-02-01T06:26:40.636Z,2.00
2019-02-01T06:29:43.555Z,2.00
2019-02-01T06:32:47.121Z,2.10
2019-02-01T06:35:50.331Z,2.20
2019-02-01T06:38:53.751Z,2.20
2019-02-01T06:41:57.063Z,2.20
2019-02-01T06:44:59.990Z,2.30
2019-02-01T06:48:04.376Z,2.20
2019-02-01T06:51:26.887Z,2.30
2019-02-01T06:54:30.491Z,2.30
2019-02-01T06:57:34.420Z,2.40
2019-02-01T07:00:41.530Z,2.40
2019-02-01T07:04:02.448Z,2.50
2019-02-01T07:07:27.719Z,2.50
2019-02-01T07:10:46.529Z,2.40
2019-02-01T07:14:15.196Z,2.40
2019-02-01T07:17:55.738Z,2.40
2019-02-01T07:21:21.646Z,2.40
2019-02-01T07:24:37.801Z,4.20
2019-02-01T07:27:51.353Z,4.90
2019-02-01T07:31:05.400Z,3.70
2019-02-01T07:34:10.012Z,3.00
2019-02-01T07:37:13.267Z,2.80
2019-02-01T07:40:16.573Z,2.70
2019-02-01T07:43:19.770Z,2.60
2019-02-01T07:46:22.781Z,2.60
2019-02-01T07:49:29.103Z,2.60
2019-02-01T07:52:32.030Z,2.60
2019-02-01T07:55:35.306Z,2.60
2019-02-01T07:58:38.277Z,2.50
2019-02-01T08:01:41.246Z,2.50
2019-02-01T08:04:44.524Z,2.50
2019-02-01T08:07:47.720Z,2.50
2019-02-01T08:10:50.743Z,2.50
2019-02-01T08:13:54.110Z,2.50
2019-02-01T08:16:57.016Z,2.50
2019-02-01T08:20:00.287Z,2.50
2019-02-01T08:23:03.190Z,2.60
2019-02-01T08:26:06.583Z,6.20
2019-02-01T08:29:09.520Z,9.00
2019-02-01T08:32:12.749Z,6.30
2019-02-01T08:35:17.947Z,4.60
2019-02-01T08:38:20.851Z,3.70
2019-02-01T08:41:23.890Z,3.30
2019-02-01T08:44:26.789Z,3.10
2019-02-01T08:47:29.812Z,3.00
2019-02-01T08:50:32.741Z,2.90
2019-02-01T08:53:35.974Z,2.90
2019-02-01T08:56:38.916Z,2.80
2019-02-01T08:59:42.157Z,2.90
2019-02-01T09:02:45.080Z,2.90
2019-02-01T09:05:48.035Z,2.90
2019-02-01T09:08:50.942Z,2.90
2019-02-01T09:11:53.871Z,2.90
2019-02-01T09:14:56.774Z,2.90
2019-02-01T09:18:00.671Z,2.90
2019-02-01T09:21:04.066Z,2.90
2019-02-01T09:24:07.001Z,2.90
2019-02-01T09:27:09.925Z,5.80
2019-02-01T09:30:16.310Z,5.00
2019-02-01T09:33:20.680Z,6.70
2019-02-01T09:36:23.609Z,9.30
2019-02-01T09:39:27.110Z,7.00
2019-02-01T09:42:30.008Z,6.10
2019-02-01T09:45:33.318Z,5.00
2019-02-01T09:48:36.245Z,4.60
2019-02-01T09:51:39.776Z,4.30
2019-02-01T09:54:42.995Z,4.20
2019-02-01T09:57:46.148Z,4.10
2019-02-01T10:00:49.890Z,4.00
2019-02-01T10:03:53.115Z,4.10
2019-02-01T10:06:56.139Z,4.00
2019-02-01T10:09:59.379Z,3.90
2019-02-01T10:13:02.550Z,4.00
2019-02-01T10:16:05.984Z,4.00
2019-02-01T10:19:08.893Z,4.20
2019-02-01T10:22:13.578Z,4.20
2019-02-01T10:25:18.288Z,4.30
2019-02-01T10:28:21.479Z,4.80
2019-02-01T10:31:25.452Z,5.30
2019-02-01T10:34:28.688Z,5.20
2019-02-01T10:37:32.350Z,4.80
2019-02-01T10:40:35.284Z,4.50
2019-02-01T10:43:38.527Z,4.40
2019-02-01T10:46:41.771Z,4.30
2019-02-01T10:49:45.082Z,4.30
2019-02-01T10:52:48.488Z,7.80
2019-02-01T10:55:51.758Z,7.70
2019-02-01T10:58:55.052Z,6.20
2019-02-01T11:01:57.982Z,5.90
2019-02-01T11:05:00.914Z,5.70
2019-02-01T11:08:04.825Z,5.50
2019-02-01T11:11:08.360Z,5.30
2019-02-01T11:14:11.296Z,5.60
2019-02-01T11:17:14.208Z,5.40
2019-02-01T11:20:19.373Z,5.20
2019-02-01T11:23:22.272Z,5.20
2019-02-01T11:26:25.597Z,5.30
2019-02-01T11:29:28.500Z,8.70
2019-02-01T11:32:31.715Z,7.70
2019-02-01T11:35:34.644Z,6.60
2019-02-01T11:38:37.910Z,6.00
2019-02-01T11:41:41.072Z,5.40
2019-02-01T11:44:46.637Z,5.20
2019-02-01T11:47:48.931Z,5.10
2019-02-01T11:50:51.861Z,5.10
2019-02-01T11:53:55.504Z,5.00
2019-02-01T11:56:58.696Z,5.00
2019-02-01T12:00:02.136Z,5.00
2019-02-01T12:03:05.740Z,5.20
2019-02-01T12:06:08.970Z,5.10
2019-02-01T12:09:12.182Z,5.10
2019-02-01T12:12:15.204Z,5.20
2019-02-01T12:15:18.532Z,5.20
2019-02-01T12:18:22.280Z,5.30
2019-02-01T12:21:25.201Z,5.40
2019-02-01T12:24:28.131Z,5.30
2019-02-01T12:27:31.344Z,5.30
2019-02-01T12:30:34.742Z,5.30
2019-02-01T12:33:38.163Z,5.40
2019-02-01T12:36:41.121Z,5.40
2019-02-01T12:39:44.415Z,5.50
2019-02-01T12:42:50.292Z,5.70
2019-02-01T12:45:52.881Z,6.20
2019-02-01T12:48:55.794Z,6.00
2019-02-01T12:51:58.733Z,5.70
2019-02-01T12:55:02.413Z,5.70
2019-02-01T12:58:05.645Z,5.60
2019-02-01T13:01:08.678Z,5.50
2019-02-01T13:04:11.643Z,5.50
2019-02-01T13:07:14.600Z,5.50
2019-02-01T13:10:17.952Z,5.40
2019-02-01T13:13:21.037Z,5.40
2019-02-01T13:16:24.003Z,5.30
2019-02-01T13:19:27.482Z,5.30
2019-02-01T13:22:30.433Z,5.40
2019-02-01T13:25:33.347Z,5.40
2019-02-01T13:28:36.952Z,5.40
2019-02-01T13:31:40.172Z,5.40
2019-02-01T13:34:43.550Z,5.40
2019-02-01T13:37:46.757Z,5.20
2019-02-01T13:40:50.035Z,5.20
2019-02-01T13:43:52.956Z,5.10
2019-02-01T13:46:56.190Z,5.10
2019-02-01T13:49:59.143Z,5.10
2019-02-01T13:53:02.507Z,5.10
2019-02-01T13:56:05.700Z,5.10
2019-02-01T13:59:10.755Z,5.00
2019-02-01T14:02:13.689Z,5.00
2019-02-01T14:05:16.651Z,4.90
2019-02-01T14:08:19.894Z,5.10
2019-02-01T14:11:22.890Z,5.00
2019-02-01T14:14:25.812Z,4.90
2019-02-01T14:17:29.054Z,4.80
2019-02-01T14:20:31.981Z,4.90
2019-02-01T14:23:46.821Z,4.80
2019-02-01T14:26:45.841Z,4.80
2019-02-01T14:29:49.011Z,5.00
2019-02-01T14:32:51.933Z,4.90
2019-02-01T14:35:56.116Z,4.80
2019-02-01T14:48:19.328Z,4.70
2019-02-01T14:54:25.705Z,4.60
2019-02-01T14:57:28.727Z,4.60
2019-02-01T15:00:31.936Z,4.50
2019-02-01T15:03:35.001Z,4.50
2019-02-01T15:06:37.926Z,4.40
2019-02-01T15:09:41.449Z,4.30
2019-02-01T15:12:45.190Z,4.30
2019-02-01T15:15:48.423Z,4.20
2019-02-01T15:18:51.379Z,4.20
2019-02-01T15:21:54.362Z,4.10
2019-02-01T15:28:00.525Z,4.00
2019-02-01T15:31:03.825Z,3.90
2019-02-01T15:34:07.339Z,3.80
2019-02-01T15:37:10.284Z,3.80
2019-02-01T15:40:26.024Z,3.80
2019-02-01T15:43:29.485Z,3.80
2019-02-01T15:46:33.142Z,3.80
2019-02-01T15:49:36.804Z,4.00
2019-02-01T15:52:40.016Z,3.70
2019-02-01T15:55:42.919Z,3.60
2019-02-01T15:58:46.599Z,3.60
2019-02-01T16:01:49.847Z,3.50
2019-02-01T16:04:52.710Z,3.40
2019-02-01T16:07:55.667Z,3.40
2019-02-01T16:10:58.572Z,3.40
2019-02-01T16:14:01.505Z,3.30
2019-02-01T16:17:04.610Z,3.30
2019-02-01T16:20:20.513Z,3.30
2019-02-01T16:23:23.513Z,3.20
2019-02-01T16:26:26.532Z,3.20
2019-02-01T16:29:29.712Z,3.20
2019-02-01T16:32:32.708Z,3.10
2019-02-01T16:35:36.293Z,3.00
2019-02-01T16:38:39.592Z,2.90
2019-02-01T16:41:42.520Z,3.00
2019-02-01T16:44:46.778Z,3.00
2019-02-01T16:47:49.826Z,2.90
2019-02-01T16:50:53.615Z,2.80
2019-02-01T16:53:56.785Z,2.80
2019-02-01T16:57:00.319Z,2.70
2019-02-01T17:00:07.715Z,2.70
2019-02-01T17:03:11.522Z,2.70
2019-02-01T17:06:14.439Z,2.60
2019-02-01T17:09:17.371Z,2.60
2019-02-01T17:12:20.377Z,2.60
2019-02-01T17:15:24.073Z,2.50
2019-02-01T17:18:27.678Z,2.50
2019-02-01T17:21:30.872Z,2.50
2019-02-01T17:24:34.180Z,2.50
2019-02-01T17:27:37.400Z,2.50
2019-02-01T17:30:43.914Z,2.50
2019-02-01T17:33:47.136Z,2.50
2019-02-01T17:36:50.036Z,2.50
2019-02-01T17:39:53.287Z,2.50
2019-02-01T17:42:56.192Z,2.50
2019-02-01T17:45:59.491Z,2.50
2019-02-01T17:49:03.203Z,2.40
2019-02-01T17:52:06.485Z,2.40
2019-02-01T17:55:10.282Z,2.30
2019-02-01T18:01:16.183Z,2.70
2019-02-01T18:04:19.098Z,2.50
2019-02-01T18:07:22.431Z,2.50
2019-02-01T18:10:26.048Z,2.40
2019-02-01T18:13:28.951Z,2.40
2019-02-01T18:16:32.663Z,2.20
2019-02-01T20:04:05.876Z,2.70
2019-02-01T20:07:08.823Z,2.50
2019-02-01T20:16:25.117Z,1.80
2019-02-01T20:19:28.407Z,2.50
2019-02-01T20:22:31.715Z,2.50
2019-02-01T20:25:34.652Z,2.50
2019-02-01T20:31:43.235Z,2.40
2019-02-01T20:34:46.164Z,2.50
2019-02-01T20:37:49.398Z,2.40
